Impacts TAF Board INFO
FOR SITUATIONAL AWARENESS. NOT TO BE USED FOR FLIGHT PLANNING PURPOSES.
IDs:

KMEI - Meridian/Key Fld, MS, US

Issued at 2352 UTC 24 Feb 2018
Updated at 0155 UTC 25 Feb 2018
Potential Impact None Slight Moderate High
Time0058Z 25/02Z 25/03Z 25/04Z 25/05Z 25/06Z 25/07Z 25/08Z 25/09Z 25/10Z 25/11Z 25/12Z 25/13Z 25/14Z>>
Type OBS PRVL PRVL PRVL PRVL PRVL PRVL PRVL PRVL PRVL PRVL PRVL PRVL PRVL
VIS 10 >6 >6 >6 >6 >6 >6 >6 >6 5 5 2 2 >6
CIG -- 50 50 50 15 15 15 15 15 15 15 15 15 25
Cover CLR BKN BKN BKN BKN BKN BKN BKN BKN BKN BKN OVC OVC OVC
FltCat VFR VFR VFR VFR MVFR MVFR MVFR MVFR MVFR MVFR MVFR IFR IFR MVFR
WX -- VCSH VCSH VCSH -- -- -- -- -- -TSRA -TSRA -RA BR -RA BR -RA
WDir 170 180 180 180 190 190 190 190 190 280 280 340 340 360
WSpd 10 12 12 12 13 13 13 13 13 10 10 9 9 7
WGst -- -- -- -- -- -- -- -- -- 20 20 -- -- --

Raw TAF
KMEI 242352Z 2500/2524 18012KT P6SM VCSH BKN050
  FM250500 19013KT P6SM BKN015 BKN250
  FM251000 28010G20KT 5SM -TSRA BKN015CB BKN025
  FM251200 34009KT 2SM -RA BR BKN015 OVC025
  FM251400 36007KT P6SM -RA BKN025 OVC050
  FM251600 01004KT P6SM SHRA OVC050


Raw METAR
KMEI 250058Z 17010KT 10SM CLR 24/17 A2997 RMK AO2 RAE05 SLP144 P0000 T02390172
KMEI 242358Z 19017G21KT 10SM -RA FEW050 SCT080 OVC100 25/18 A2996 RMK AO2 RAB55 SLP143 P0000 60000 T02500178 10289 20250 53007
KMEI 242258Z 19014KT 10SM FEW060 SCT075 BKN095 27/16 A2994 RMK AO2 PK WND 19027/2206 SLP135 T02670161

METAR Board
Radar Display
Forecast Discussion

FOR SITUATIONAL AWARENESS. NOT TO BE USED FOR FLIGHT PLANNING PURPOSES.